sensor_id;sensor_type;location;lat;lon;timestamp;pressure;altitude;pressure_sealevel;temperature;humidity
75938;BME280;64615;32.062;34.834;2023-08-08T00:00:17;100154.56;;;28.24;59.97
75938;BME280;64615;32.062;34.834;2023-08-08T00:02:43;100145.56;;;28.23;60.19
75938;BME280;64615;32.062;34.834;2023-08-08T00:05:09;100151.53;;;28.26;60.02
75938;BME280;64615;32.062;34.834;2023-08-08T00:07:35;100141.41;;;28.26;59.87
75938;BME280;64615;32.062;34.834;2023-08-08T00:10:00;100149.28;;;28.28;59.93
75938;BME280;64615;32.062;34.834;2023-08-08T00:12:26;100155.56;;;28.28;60.22
75938;BME280;64615;32.062;34.834;2023-08-08T00:14:51;100156.88;;;28.31;60.20
75938;BME280;64615;32.062;34.834;2023-08-08T00:17:17;100155.44;;;28.33;60.20
75938;BME280;64615;32.062;34.834;2023-08-08T00:19:43;100164.16;;;28.35;60.20
75938;BME280;64615;32.062;34.834;2023-08-08T00:22:08;100159.16;;;28.37;60.07
75938;BME280;64615;32.062;34.834;2023-08-08T00:24:34;100162.25;;;28.36;60.27
75938;BME280;64615;32.062;34.834;2023-08-08T00:26:59;100159.81;;;28.34;60.05
75938;BME280;64615;32.062;34.834;2023-08-08T00:29:25;100156.25;;;28.34;60.28
75938;BME280;64615;32.062;34.834;2023-08-08T00:31:51;100157.88;;;28.35;60.19
75938;BME280;64615;32.062;34.834;2023-08-08T00:34:16;100146.41;;;28.33;60.06
75938;BME280;64615;32.062;34.834;2023-08-08T00:36:42;100159.00;;;28.34;60.08
75938;BME280;64615;32.062;34.834;2023-08-08T00:39:07;100141.75;;;28.33;60.34
75938;BME280;64615;32.062;34.834;2023-08-08T00:41:33;100153.81;;;28.32;59.79
75938;BME280;64615;32.062;34.834;2023-08-08T00:43:59;100152.72;;;28.33;60.13
75938;BME280;64615;32.062;34.834;2023-08-08T00:46:24;100153.53;;;28.34;60.19
75938;BME280;64615;32.062;34.834;2023-08-08T00:48:53;100156.25;;;28.34;59.97
75938;BME280;64615;32.062;34.834;2023-08-08T00:51:20;100149.97;;;28.33;60.07
75938;BME280;64615;32.062;34.834;2023-08-08T00:53:47;100154.63;;;28.33;60.25
75938;BME280;64615;32.062;34.834;2023-08-08T00:56:13;100157.06;;;28.34;60.06
75938;BME280;64615;32.062;34.834;2023-08-08T00:58:40;100153.53;;;28.34;60.22
75938;BME280;64615;32.062;34.834;2023-08-08T01:01:06;100160.09;;;28.33;60.27
75938;BME280;64615;32.062;34.834;2023-08-08T01:03:31;100160.09;;;28.33;60.32
75938;BME280;64615;32.062;34.834;2023-08-08T01:06:23;100153.34;;;28.30;60.33
75938;BME280;64615;32.062;34.834;2023-08-08T01:08:58;100151.22;;;28.27;60.41
75938;BME280;64615;32.062;34.834;2023-08-08T01:11:28;100156.69;;;28.27;60.28
75938;BME280;64615;32.062;34.834;2023-08-08T01:13:55;100160.56;;;28.26;60.06
75938;BME280;64615;32.062;34.834;2023-08-08T01:16:21;100162.97;;;28.28;60.29
75938;BME280;64615;32.062;34.834;2023-08-08T01:18:48;100162.97;;;28.28;60.42
75938;BME280;64615;32.062;34.834;2023-08-08T01:21:15;100157.19;;;28.29;60.26
75938;BME280;64615;32.062;34.834;2023-08-08T01:23:45;100160.22;;;28.28;60.22
75938;BME280;64615;32.062;34.834;2023-08-08T01:26:12;100156.19;;;28.25;60.10
75938;BME280;64615;32.062;34.834;2023-08-08T01:28:38;100153.75;;;28.23;60.32
75938;BME280;64615;32.062;34.834;2023-08-08T01:31:04;100153.75;;;28.23;60.36
75938;BME280;64615;32.062;34.834;2023-08-08T01:33:30;100154.06;;;28.22;60.28
75938;BME280;64615;32.062;34.834;2023-08-08T01:36:13;100160.34;;;28.22;60.42
75938;BME280;64615;32.062;34.834;2023-08-08T01:38:44;100152.47;;;28.21;60.55
75938;BME280;64615;32.062;34.834;2023-08-08T01:41:13;100157.13;;;28.20;60.20
75938;BME280;64615;32.062;34.834;2023-08-08T01:43:40;100159.88;;;28.20;60.46
75938;BME280;64615;32.062;34.834;2023-08-08T01:46:07;100158.25;;;28.19;60.21
75938;BME280;64615;32.062;34.834;2023-08-08T01:48:33;100160.69;;;28.21;60.24
75938;BME280;64615;32.062;34.834;2023-08-08T01:50:58;100160.16;;;28.19;60.39
75938;BME280;64615;32.062;34.834;2023-08-08T01:53:24;100166.47;;;28.19;60.50
75938;BME280;64615;32.062;34.834;2023-08-08T01:55:50;100164.53;;;28.20;59.97
75938;BME280;64615;32.062;34.834;2023-08-08T01:58:17;100159.53;;;28.22;60.28
75938;BME280;64615;32.062;34.834;2023-08-08T02:00:43;100158.72;;;28.21;60.11
75938;BME280;64615;32.062;34.834;2023-08-08T02:03:10;100158.72;;;28.21;60.07
75938;BME280;64615;32.062;34.834;2023-08-08T02:05:36;100161.47;;;28.21;60.16
75938;BME280;64615;32.062;34.834;2023-08-08T02:08:01;100147.78;;;28.21;60.18
75938;BME280;64615;32.062;34.834;2023-08-08T02:10:27;100157.63;;;28.22;60.09
75938;BME280;64615;32.062;34.834;2023-08-08T02:12:53;100160.34;;;28.22;60.17
75938;BME280;64615;32.062;34.834;2023-08-08T02:15:18;100153.47;;;28.25;60.35
75938;BME280;64615;32.062;34.834;2023-08-08T02:17:45;100153.66;;;28.29;60.18
75938;BME280;64615;32.062;34.834;2023-08-08T02:20:11;100159.63;;;28.31;60.08
75938;BME280;64615;32.062;34.834;2023-08-08T02:22:37;100154.97;;;28.31;60.03
75938;BME280;64615;32.062;34.834;2023-08-08T02:25:03;100159.13;;;28.29;60.17
75938;BME280;64615;32.062;34.834;2023-08-08T02:27:29;100162.97;;;28.28;60.07
75938;BME280;64615;32.062;34.834;2023-08-08T02:29:54;100166.03;;;28.26;60.14
75938;BME280;64615;32.062;34.834;2023-08-08T02:32:20;100168.78;;;28.26;60.11
75938;BME280;64615;32.062;34.834;2023-08-08T02:34:46;100172.63;;;28.25;60.04
75938;BME280;64615;32.062;34.834;2023-08-08T02:37:11;100171.00;;;28.24;60.18
75938;BME280;64615;32.062;34.834;2023-08-08T02:39:37;100171.81;;;28.25;60.12
75938;BME280;64615;32.062;34.834;2023-08-08T02:42:03;100174.56;;;28.25;59.93
75938;BME280;64615;32.062;34.834;2023-08-08T02:44:29;100175.66;;;28.23;60.09
75938;BME280;64615;32.062;34.834;2023-08-08T02:46:55;100178.41;;;28.23;60.07
75938;BME280;64615;32.062;34.834;2023-08-08T02:49:20;100168.56;;;28.22;60.13
75938;BME280;64615;32.062;34.834;2023-08-08T02:51:46;100174.84;;;28.23;60.08
75938;BME280;64615;32.062;34.834;2023-08-08T02:54:11;100176.78;;;28.22;60.10
75938;BME280;64615;32.062;34.834;2023-08-08T02:56:37;100176.78;;;28.22;59.95
75938;BME280;64615;32.062;34.834;2023-08-08T02:59:03;100176.59;;;28.19;59.91
75938;BME280;64615;32.062;34.834;2023-08-08T03:01:28;100175.78;;;28.18;60.12
75938;BME280;64615;32.062;34.834;2023-08-08T03:03:54;100181.25;;;28.18;60.10
75938;BME280;64615;32.062;34.834;2023-08-08T03:06:20;100172.53;;;28.16;60.16
75938;BME280;64615;32.062;34.834;2023-08-08T03:08:45;100179.16;;;28.15;60.07
75938;BME280;64615;32.062;34.834;2023-08-08T03:11:11;100181.88;;;28.15;59.97
75938;BME280;64615;32.062;34.834;2023-08-08T03:13:36;100182.66;;;28.16;60.09
75938;BME280;64615;32.062;34.834;2023-08-08T03:16:03;100179.94;;;28.16;60.09
75938;BME280;64615;32.062;34.834;2023-08-08T03:18:28;100179.03;;;28.20;60.29
75938;BME280;64615;32.062;34.834;2023-08-08T03:20:54;100176.47;;;28.24;60.12
75938;BME280;64615;32.062;34.834;2023-08-08T03:23:20;100183.88;;;28.23;59.94
75938;BME280;64615;32.062;34.834;2023-08-08T03:25:46;100184.16;;;28.22;59.96
75938;BME280;64615;32.062;34.834;2023-08-08T03:28:11;100182.88;;;28.19;59.92
75938;BME280;64615;32.062;34.834;2023-08-08T03:30:37;100182.88;;;28.19;60.03
75938;BME280;64615;32.062;34.834;2023-08-08T03:33:04;100182.88;;;28.19;60.40
75938;BME280;64615;32.062;34.834;2023-08-08T03:35:30;100175.47;;;28.20;59.88
75938;BME280;64615;32.062;34.834;2023-08-08T03:37:55;100179.03;;;28.20;59.79
75938;BME280;64615;32.062;34.834;2023-08-08T03:40:21;100181.75;;;28.20;60.11
75938;BME280;64615;32.062;34.834;2023-08-08T03:42:47;100178.22;;;28.20;60.04
75938;BME280;64615;32.062;34.834;2023-08-08T03:45:12;100181.75;;;28.20;60.08
75938;BME280;64615;32.062;34.834;2023-08-08T03:47:38;100189.97;;;28.20;59.91
75938;BME280;64615;32.062;34.834;2023-08-08T03:50:04;100179.34;;;28.19;59.78
75938;BME280;64615;32.062;34.834;2023-08-08T03:52:30;100181.75;;;28.20;60.06
75938;BME280;64615;32.062;34.834;2023-08-08T03:54:56;100181.75;;;28.20;60.13
75938;BME280;64615;32.062;34.834;2023-08-08T03:57:22;100181.75;;;28.20;60.03
75938;BME280;64615;32.062;34.834;2023-08-08T03:59:47;100184.50;;;28.20;60.06
75938;BME280;64615;32.062;34.834;2023-08-08T04:02:13;100176.59;;;28.19;59.98
75938;BME280;64615;32.062;34.834;2023-08-08T04:04:38;100185.91;;;28.18;59.94
75938;BME280;64615;32.062;34.834;2023-08-08T04:07:04;100187.03;;;28.17;59.94
75938;BME280;64615;32.062;34.834;2023-08-08T04:09:30;100185.41;;;28.16;60.03
75938;BME280;64615;32.062;34.834;2023-08-08T04:11:56;100186.22;;;28.16;59.87
75938;BME280;64615;32.062;34.834;2023-08-08T04:14:21;100193.31;;;28.17;60.06
75938;BME280;64615;32.062;34.834;2023-08-08T04:16:47;100196.88;;;28.18;60.09
75938;BME280;64615;32.062;34.834;2023-08-08T04:19:13;100197.38;;;28.20;59.93
75938;BME280;64615;32.062;34.834;2023-08-08T04:21:38;100183.69;;;28.20;59.75
75938;BME280;64615;32.062;34.834;2023-08-08T04:24:04;100193.19;;;28.22;59.99
75938;BME280;64615;32.062;34.834;2023-08-08T04:26:33;100194.81;;;28.23;59.63
75938;BME280;64615;32.062;34.834;2023-08-08T04:28:58;100195.34;;;28.26;59.87
75938;BME280;64615;32.062;34.834;2023-08-08T04:31:24;100199.66;;;28.27;59.82
75938;BME280;64615;32.062;34.834;2023-08-08T04:33:51;100201.63;;;28.26;59.77
75938;BME280;64615;32.062;34.834;2023-08-08T04:36:18;100202.91;;;28.29;59.55
75938;BME280;64615;32.062;34.834;2023-08-08T04:38:43;100197.13;;;28.30;59.79
75938;BME280;64615;32.062;34.834;2023-08-08T04:41:09;100207.28;;;28.30;59.77
75938;BME280;64615;32.062;34.834;2023-08-08T04:43:34;100204.53;;;28.30;59.76
75938;BME280;64615;32.062;34.834;2023-08-08T04:46:00;100208.56;;;28.32;59.65
75938;BME280;64615;32.062;34.834;2023-08-08T04:48:26;100203.59;;;28.34;59.54
75938;BME280;64615;32.062;34.834;2023-08-08T04:50:51;100202.19;;;28.37;59.32
75938;BME280;64615;32.062;34.834;2023-08-08T04:53:17;100207.56;;;28.42;59.35
75938;BME280;64615;32.062;34.834;2023-08-08T04:55:43;100204.19;;;28.45;59.23
75938;BME280;64615;32.062;34.834;2023-08-08T04:58:08;100207.31;;;28.52;59.11
75938;BME280;64615;32.062;34.834;2023-08-08T05:00:34;100211.84;;;28.56;58.93
75938;BME280;64615;32.062;34.834;2023-08-08T05:03:00;100206.38;;;28.56;58.89
75938;BME280;64615;32.062;34.834;2023-08-08T05:05:26;100218.63;;;28.59;59.05
75938;BME280;64615;32.062;34.834;2023-08-08T05:07:52;100213.66;;;28.61;58.82
75938;BME280;64615;32.062;34.834;2023-08-08T05:10:18;100213.84;;;28.64;59.02
75938;BME280;64615;32.062;34.834;2023-08-08T05:12:43;100206.13;;;28.67;58.53
75938;BME280;64615;32.062;34.834;2023-08-08T05:15:09;100218.38;;;28.69;58.61
75938;BME280;64615;32.062;34.834;2023-08-08T05:17:35;100212.31;;;28.72;58.49
75938;BME280;64615;32.062;34.834;2023-08-08T05:20:00;100217.81;;;28.72;58.68
75938;BME280;64615;32.062;34.834;2023-08-08T05:22:26;100219.59;;;28.77;58.70
75938;BME280;64615;32.062;34.834;2023-08-08T05:24:52;100219.28;;;28.78;58.35
75938;BME280;64615;32.062;34.834;2023-08-08T05:27:17;100214.28;;;28.80;58.56
75938;BME280;64615;32.062;34.834;2023-08-08T05:29:43;100212.06;;;28.82;58.29
75938;BME280;64615;32.062;34.834;2023-08-08T05:32:08;100220.75;;;28.84;58.05
75938;BME280;64615;32.062;34.834;2023-08-08T05:34:34;100218.53;;;28.86;58.17
75938;BME280;64615;32.062;34.834;2023-08-08T05:37:00;100215.78;;;28.86;58.19
75938;BME280;64615;32.062;34.834;2023-08-08T05:39:26;100219.50;;;28.90;58.30
75938;BME280;64615;32.062;34.834;2023-08-08T05:41:52;100222.25;;;28.90;58.04
75938;BME280;64615;32.062;34.834;2023-08-08T05:44:18;100215.34;;;28.93;57.92
75938;BME280;64615;32.062;34.834;2023-08-08T05:46:43;100225.69;;;28.96;58.05
75938;BME280;64615;32.062;34.834;2023-08-08T05:49:09;100221.00;;;28.96;58.03
75938;BME280;64615;32.062;34.834;2023-08-08T05:51:34;100233.59;;;28.97;57.95
75938;BME280;64615;32.062;34.834;2023-08-08T05:54:00;100217.97;;;28.98;57.86
75938;BME280;64615;32.062;34.834;2023-08-08T05:56:34;100228.63;;;28.99;57.80
75938;BME280;64615;32.062;34.834;2023-08-08T05:59:00;100236.50;;;29.01;57.65
75938;BME280;64615;32.062;34.834;2023-08-08T06:01:25;100234.88;;;29.00;57.82
75938;BME280;64615;32.062;34.834;2023-08-08T06:03:51;100237.31;;;29.01;57.70
75938;BME280;64615;32.062;34.834;2023-08-08T06:06:18;100237.63;;;29.00;57.77
75938;BME280;64615;32.062;34.834;2023-08-08T06:08:44;100236.03;;;28.99;57.81
75938;BME280;64615;32.062;34.834;2023-08-08T06:11:09;100234.09;;;28.99;57.40
75938;BME280;64615;32.062;34.834;2023-08-08T06:13:35;100232.47;;;28.98;57.99
75938;BME280;64615;32.062;34.834;2023-08-08T06:16:00;100233.59;;;28.97;57.88
75938;BME280;64615;32.062;34.834;2023-08-08T06:18:27;100231.97;;;28.96;57.76
75938;BME280;64615;32.062;34.834;2023-08-08T06:20:52;100226.19;;;28.98;57.55
75938;BME280;64615;32.062;34.834;2023-08-08T06:23:18;100236.03;;;28.99;57.75
75938;BME280;64615;32.062;34.834;2023-08-08T06:25:44;100227.47;;;29.00;57.70
75938;BME280;64615;32.062;34.834;2023-08-08T06:28:09;100230.22;;;29.00;57.76
75938;BME280;64615;32.062;34.834;2023-08-08T06:30:36;100234.59;;;29.01;57.52
75938;BME280;64615;32.062;34.834;2023-08-08T06:33:02;100240.88;;;29.02;57.70
75938;BME280;64615;32.062;34.834;2023-08-08T06:35:28;100238.13;;;29.02;57.72
75938;BME280;64615;32.062;34.834;2023-08-08T06:37:54;100244.44;;;29.02;57.32
75938;BME280;64615;32.062;34.834;2023-08-08T06:40:19;100242.00;;;29.01;57.87
75938;BME280;64615;32.062;34.834;2023-08-08T06:42:46;100235.69;;;29.00;57.78
75938;BME280;64615;32.062;34.834;2023-08-08T06:45:12;100226.66;;;29.00;57.72
75938;BME280;64615;32.062;34.834;2023-08-08T06:47:37;100229.91;;;29.02;57.51
75938;BME280;64615;32.062;34.834;2023-08-08T06:50:03;100240.06;;;29.01;57.84
75938;BME280;64615;32.062;34.834;2023-08-08T06:52:30;100237.31;;;29.01;57.59
75938;BME280;64615;32.062;34.834;2023-08-08T06:54:56;100237.03;;;29.03;57.32
75938;BME280;64615;32.062;34.834;2023-08-08T06:57:22;100243.63;;;29.02;57.80
75938;BME280;64615;32.062;34.834;2023-08-08T06:59:47;100235.69;;;29.00;57.61
75938;BME280;64615;32.062;34.834;2023-08-08T07:02:16;100235.69;;;29.00;57.62
75938;BME280;64615;32.062;34.834;2023-08-08T07:04:42;100236.84;;;28.99;57.89
75938;BME280;64615;32.062;34.834;2023-08-08T07:07:08;100237.97;;;28.98;57.92
75938;BME280;64615;32.062;34.834;2023-08-08T07:09:33;100232.47;;;28.98;57.65
75938;BME280;64615;32.062;34.834;2023-08-08T07:12:00;100230.84;;;28.97;57.57
75938;BME280;64615;32.062;34.834;2023-08-08T07:14:25;100226.50;;;28.96;57.60
75938;BME280;64615;32.062;34.834;2023-08-08T07:16:51;100220.19;;;28.96;57.95
75938;BME280;64615;32.062;34.834;2023-08-08T07:19:18;100228.41;;;28.96;57.99
75938;BME280;64615;32.062;34.834;2023-08-08T07:21:44;100227.59;;;28.95;57.79
75938;BME280;64615;32.062;34.834;2023-08-08T07:24:10;100232.28;;;28.95;57.80
75938;BME280;64615;32.062;34.834;2023-08-08T07:26:35;100213.91;;;28.95;57.83
75938;BME280;64615;32.062;34.834;2023-08-08T07:29:01;100218.28;;;28.96;57.85
75938;BME280;64615;32.062;34.834;2023-08-08T07:31:27;100229.22;;;28.96;57.70
75938;BME280;64615;32.062;34.834;2023-08-08T07:33:52;100212.78;;;28.96;57.78
75938;BME280;64615;32.062;34.834;2023-08-08T07:36:18;100221.00;;;28.96;57.84
75938;BME280;64615;32.062;34.834;2023-08-08T07:38:43;100218.56;;;28.95;57.76
75938;BME280;64615;32.062;34.834;2023-08-08T07:41:09;100217.47;;;28.96;57.90
75938;BME280;64615;32.062;34.834;2023-08-08T07:43:35;100213.09;;;28.95;57.77
75938;BME280;64615;32.062;34.834;2023-08-08T07:46:01;100208.75;;;28.94;57.67
75938;BME280;64615;32.062;34.834;2023-08-08T07:48:26;100213.44;;;28.93;57.70
75938;BME280;64615;32.062;34.834;2023-08-08T07:50:52;100209.06;;;28.92;57.94
75938;BME280;64615;32.062;34.834;2023-08-08T07:53:17;100200.84;;;28.92;57.71
75938;BME280;64615;32.062;34.834;2023-08-08T07:55:43;100207.44;;;28.91;57.67
75938;BME280;64615;32.062;34.834;2023-08-08T07:58:08;100201.16;;;28.91;57.88
75938;BME280;64615;32.062;34.834;2023-08-08T08:00:35;100203.06;;;28.90;57.95
75938;BME280;64615;32.062;34.834;2023-08-08T08:03:00;100204.69;;;28.91;58.07
75938;BME280;64615;32.062;34.834;2023-08-08T08:05:26;100205.81;;;28.90;58.09
75938;BME280;64615;32.062;34.834;2023-08-08T08:07:52;100197.59;;;28.90;57.94
75938;BME280;64615;32.062;34.834;2023-08-08T08:10:17;100196.47;;;28.91;57.83
75938;BME280;64615;32.062;34.834;2023-08-08T08:12:43;100190.19;;;28.91;57.93
75938;BME280;64615;32.062;34.834;2023-08-08T08:15:09;100192.94;;;28.91;57.81
75938;BME280;64615;32.062;34.834;2023-08-08T08:17:35;100192.13;;;28.90;57.74
75938;BME280;64615;32.062;34.834;2023-08-08T08:20:01;100195.97;;;28.89;57.91
75938;BME280;64615;32.062;34.834;2023-08-08T08:22:31;100189.72;;;28.89;57.79
75938;BME280;64615;32.062;34.834;2023-08-08T08:24:57;100195.19;;;28.89;58.03
75938;BME280;64615;32.062;34.834;2023-08-08T08:27:23;100189.72;;;28.89;57.93
75938;BME280;64615;32.062;34.834;2023-08-08T08:29:48;100190.50;;;28.89;57.97
75938;BME280;64615;32.062;34.834;2023-08-08T08:32:14;100190.00;;;28.87;57.86
75938;BME280;64615;32.062;34.834;2023-08-08T08:34:39;100187.75;;;28.89;57.81
75938;BME280;64615;32.062;34.834;2023-08-08T08:37:05;100183.91;;;28.90;57.61
75938;BME280;64615;32.062;34.834;2023-08-08T08:39:31;100192.13;;;28.90;57.91
75938;BME280;64615;32.062;34.834;2023-08-08T08:41:59;100185.00;;;28.89;57.55
75938;BME280;64615;32.062;34.834;2023-08-08T08:44:34;100189.38;;;28.90;57.72
75938;BME280;64615;32.062;34.834;2023-08-08T08:47:02;100179.53;;;28.89;57.74
75938;BME280;64615;32.062;34.834;2023-08-08T08:49:31;100185.34;;;28.88;57.98
75938;BME280;64615;32.062;34.834;2023-08-08T08:51:59;100173.28;;;28.89;57.77
75938;BME280;64615;32.062;34.834;2023-08-08T08:54:30;100179.88;;;28.88;57.93
75938;BME280;64615;32.062;34.834;2023-08-08T08:56:56;100178.53;;;28.85;58.04
75938;BME280;64615;32.062;34.834;2023-08-08T08:59:23;100173.41;;;28.84;58.03
75938;BME280;64615;32.062;34.834;2023-08-08T09:01:50;100180.00;;;28.83;58.05
75938;BME280;64615;32.062;34.834;2023-08-08T09:04:18;100177.25;;;28.83;58.08
75938;BME280;64615;32.062;34.834;2023-08-08T09:06:46;100176.75;;;28.81;58.08
75938;BME280;64615;32.062;34.834;2023-08-08T09:09:12;100169.34;;;28.81;58.20
75938;BME280;64615;32.062;34.834;2023-08-08T09:11:38;100167.13;;;28.83;57.84
75938;BME280;64615;32.062;34.834;2023-08-08T09:14:16;100169.03;;;28.83;57.63
75938;BME280;64615;32.062;34.834;2023-08-08T09:16:43;100170.97;;;28.82;57.75
75938;BME280;64615;32.062;34.834;2023-08-08T09:19:08;100163.88;;;28.81;57.87
75938;BME280;64615;32.062;34.834;2023-08-08T09:21:34;100173.72;;;28.82;57.80
75938;BME280;64615;32.062;34.834;2023-08-08T09:24:00;100170.16;;;28.82;57.81
75938;BME280;64615;32.062;34.834;2023-08-08T09:26:25;100168.53;;;28.81;58.08
75938;BME280;64615;32.062;34.834;2023-08-08T09:28:52;100162.44;;;28.84;57.99
75938;BME280;64615;32.062;34.834;2023-08-08T09:31:17;100172.09;;;28.81;58.15
75938;BME280;64615;32.062;34.834;2023-08-08T09:33:43;100179.50;;;28.81;58.03
75938;BME280;64615;32.062;34.834;2023-08-08T09:36:18;100170.47;;;28.80;58.13
75938;BME280;64615;32.062;34.834;2023-08-08T09:38:47;100175.13;;;28.80;57.96
75938;BME280;64615;32.062;34.834;2023-08-08T09:41:13;100180.59;;;28.80;58.16
75938;BME280;64615;32.062;34.834;2023-08-08T09:43:39;100172.38;;;28.80;58.12
75938;BME280;64615;32.062;34.834;2023-08-08T09:46:05;100160.97;;;28.78;58.24
75938;BME280;64615;32.062;34.834;2023-08-08T09:48:31;100171.91;;;28.78;58.22
75938;BME280;64615;32.062;34.834;2023-08-08T09:50:58;100168.66;;;28.76;57.91
75938;BME280;64615;32.062;34.834;2023-08-08T09:53:27;100158.53;;;28.76;57.98
75938;BME280;64615;32.062;34.834;2023-08-08T09:55:54;100159.63;;;28.75;57.91
75938;BME280;64615;32.062;34.834;2023-08-08T09:58:21;100159.94;;;28.74;58.14
75938;BME280;64615;32.062;34.834;2023-08-08T10:00:50;100157.53;;;28.72;58.08
75938;BME280;64615;32.062;34.834;2023-08-08T10:03:16;100158.34;;;28.73;58.24
75938;BME280;64615;32.062;34.834;2023-08-08T10:05:43;100157.53;;;28.72;58.37
75938;BME280;64615;32.062;34.834;2023-08-08T10:08:09;100150.59;;;28.75;58.27
75938;BME280;64615;32.062;34.834;2023-08-08T10:10:36;100149.50;;;28.76;57.91
75938;BME280;64615;32.062;34.834;2023-08-08T10:13:03;100153.34;;;28.75;58.07
75938;BME280;64615;32.062;34.834;2023-08-08T10:15:28;100158.81;;;28.75;58.13
75938;BME280;64615;32.062;34.834;2023-08-08T10:17:58;100154.47;;;28.74;58.32
75938;BME280;64615;32.062;34.834;2023-08-08T10:20:24;100152.06;;;28.72;58.25
75938;BME280;64615;32.062;34.834;2023-08-08T10:22:52;100158.34;;;28.73;58.32
75938;BME280;64615;32.062;34.834;2023-08-08T10:25:27;100161.09;;;28.73;58.22
75938;BME280;64615;32.062;34.834;2023-08-08T10:28:08;100146.03;;;28.70;58.03
75938;BME280;64615;32.062;34.834;2023-08-08T10:30:46;100147.97;;;28.70;58.32
75938;BME280;64615;32.062;34.834;2023-08-08T10:33:20;100142.00;;;28.68;58.45
75938;BME280;64615;32.062;34.834;2023-08-08T10:36:03;100137.34;;;28.68;58.13
75938;BME280;64615;32.062;34.834;2023-08-08T10:41:09;100138.47;;;28.67;58.38
75938;BME280;64615;32.062;34.834;2023-08-08T10:43:35;100136.19;;;28.69;58.36
75938;BME280;64615;32.062;34.834;2023-08-08T10:46:01;100141.69;;;28.69;58.49
75938;BME280;64615;32.062;34.834;2023-08-08T10:48:27;100145.22;;;28.70;58.51
75938;BME280;64615;32.062;34.834;2023-08-08T10:50:59;100145.22;;;28.70;58.45
75938;BME280;64615;32.062;34.834;2023-08-08T10:53:26;100130.72;;;28.69;58.52
75938;BME280;64615;32.062;34.834;2023-08-08T10:56:03;100141.09;;;28.72;58.15
75938;BME280;64615;32.062;34.834;2023-08-08T10:58:37;100140.09;;;28.68;58.28
75938;BME280;64615;32.062;34.834;2023-08-08T11:01:04;100130.25;;;28.67;58.29
75938;BME280;64615;32.062;34.834;2023-08-08T11:03:42;100127.50;;;28.67;58.62
75938;BME280;64615;32.062;34.834;2023-08-08T11:06:10;100122.84;;;28.68;58.20
75938;BME280;64615;32.062;34.834;2023-08-08T11:08:37;100124.78;;;28.67;58.50
75938;BME280;64615;32.062;34.834;2023-08-08T11:11:06;100128.31;;;28.68;58.29
75938;BME280;64615;32.062;34.834;2023-08-08T11:13:32;100122.03;;;28.67;58.64
75938;BME280;64615;32.062;34.834;2023-08-08T11:15:58;100122.03;;;28.67;58.48
75938;BME280;64615;32.062;34.834;2023-08-08T11:18:25;100130.25;;;28.67;58.53
75938;BME280;64615;32.062;34.834;2023-08-08T11:20:51;100116.53;;;28.67;58.58
75938;BME280;64615;32.062;34.834;2023-08-08T11:23:17;100123.66;;;28.68;58.42
75938;BME280;64615;32.062;34.834;2023-08-08T11:25:45;100120.91;;;28.68;58.46
75938;BME280;64615;32.062;34.834;2023-08-08T11:28:11;100124.44;;;28.69;58.56
75938;BME280;64615;32.062;34.834;2023-08-08T11:30:39;100128.63;;;28.66;58.56
75938;BME280;64615;32.062;34.834;2023-08-08T11:33:05;100123.44;;;28.64;58.64
75938;BME280;64615;32.062;34.834;2023-08-08T11:35:32;100122.63;;;28.64;58.49
75938;BME280;64615;32.062;34.834;2023-08-08T11:38:02;100123.75;;;28.63;58.63
75938;BME280;64615;32.062;34.834;2023-08-08T11:40:29;100117.97;;;28.64;58.68
75938;BME280;64615;32.062;34.834;2023-08-08T11:42:56;100125.38;;;28.64;58.82
75938;BME280;64615;32.062;34.834;2023-08-08T11:45:23;100124.25;;;28.65;58.49
75938;BME280;64615;32.062;34.834;2023-08-08T11:47:54;100122.63;;;28.64;58.40
75938;BME280;64615;32.062;34.834;2023-08-08T11:50:21;100122.63;;;28.64;58.67
75938;BME280;64615;32.062;34.834;2023-08-08T11:52:51;100126.50;;;28.63;58.57
75938;BME280;64615;32.062;34.834;2023-08-08T11:55:17;100118.28;;;28.63;58.70
75938;BME280;64615;32.062;34.834;2023-08-08T11:57:48;100118.28;;;28.63;58.67
75938;BME280;64615;32.062;34.834;2023-08-08T12:00:14;100121.00;;;28.63;58.42
75938;BME280;64615;32.062;34.834;2023-08-08T12:02:42;100117.97;;;28.64;58.47
75938;BME280;64615;32.062;34.834;2023-08-08T12:05:13;100117.97;;;28.64;58.76
75938;BME280;64615;32.062;34.834;2023-08-08T12:07:42;100115.22;;;28.64;58.76
75938;BME280;64615;32.062;34.834;2023-08-08T12:10:19;100108.94;;;28.64;58.71
75938;BME280;64615;32.062;34.834;2023-08-08T12:12:45;100105.91;;;28.65;58.72
75938;BME280;64615;32.062;34.834;2023-08-08T12:15:11;100103.47;;;28.64;58.48
75938;BME280;64615;32.062;34.834;2023-08-08T12:17:37;100110.56;;;28.65;58.88
75938;BME280;64615;32.062;34.834;2023-08-08T12:20:04;100114.13;;;28.65;58.54
75938;BME280;64615;32.062;34.834;2023-08-08T12:22:35;100104.56;;;28.63;58.54
75938;BME280;64615;32.062;34.834;2023-08-08T12:25:01;100112.00;;;28.62;58.80
75938;BME280;64615;32.062;34.834;2023-08-08T12:27:29;100111.22;;;28.62;58.53
75938;BME280;64615;32.062;34.834;2023-08-08T12:29:54;100108.78;;;28.60;58.98
75938;BME280;64615;32.062;34.834;2023-08-08T12:32:20;100109.88;;;28.59;58.69
75938;BME280;64615;32.062;34.834;2023-08-08T12:34:50;100099.75;;;28.60;58.70
75938;BME280;64615;32.062;34.834;2023-08-08T12:37:16;100106.84;;;28.61;58.97
75938;BME280;64615;32.062;34.834;2023-08-08T12:39:42;100099.22;;;28.58;58.93